createdAt,value
2023-03-03T00:01:17.266Z,52.53
2023-03-03T00:03:44.077Z,53.30
2023-03-03T00:06:13.088Z,52.80
2023-03-03T00:08:40.636Z,53.35
2023-03-03T00:11:07.970Z,53.27
2023-03-03T00:13:56.561Z,53.54
2023-03-03T00:16:31.672Z,53.26
2023-03-03T00:18:58.921Z,53.62
2023-03-03T00:21:31.776Z,53.54
2023-03-03T00:24:13.947Z,53.63
2023-03-03T00:26:44.193Z,53.80
2023-03-03T00:29:35.834Z,53.48
2023-03-03T00:32:21.277Z,53.66
2023-03-03T00:34:49.952Z,53.37
2023-03-03T00:37:34.546Z,53.72
2023-03-03T00:40:21.454Z,53.77
2023-03-03T00:43:00.878Z,53.72
2023-03-03T00:45:31.275Z,54.46
2023-03-03T00:47:58.928Z,55.02
2023-03-03T00:50:33.452Z,55.67
2023-03-03T00:53:10.900Z,56.04
2023-03-03T00:55:37.882Z,55.99
2023-03-03T00:58:05.177Z,56.20
2023-03-03T01:00:37.263Z,56.30
2023-03-03T01:03:08.679Z,56.14
2023-03-03T01:05:36.653Z,56.09
2023-03-03T01:08:04.493Z,55.42
2023-03-03T01:10:35.022Z,55.85
2023-03-03T01:13:02.180Z,55.66
2023-03-03T01:15:29.022Z,55.93
2023-03-03T01:17:55.985Z,55.98
2023-03-03T01:20:22.989Z,56.13
2023-03-03T01:22:49.745Z,56.19
2023-03-03T01:25:16.719Z,55.99
2023-03-03T01:27:43.439Z,55.72
2023-03-03T01:30:10.708Z,55.59
2023-03-03T01:32:37.892Z,55.74
2023-03-03T01:35:05.096Z,55.80
2023-03-03T01:37:31.810Z,55.53
2023-03-03T01:39:58.581Z,55.55
2023-03-03T01:42:29.194Z,54.25
2023-03-03T01:45:15.997Z,54.53
2023-03-03T01:48:25.745Z,54.10
2023-03-03T01:50:57.755Z,54.59
2023-03-03T01:53:38.760Z,55.08
2023-03-03T01:56:08.889Z,54.98
2023-03-03T01:58:49.604Z,54.91
2023-03-03T02:01:23.044Z,54.67
2023-03-03T02:03:50.877Z,54.45
2023-03-03T02:06:22.586Z,53.71
2023-03-03T02:09:44.612Z,53.55
2023-03-03T02:12:13.875Z,53.99
2023-03-03T02:14:40.691Z,54.10
2023-03-03T02:17:07.565Z,53.70
2023-03-03T02:19:58.683Z,54.00
2023-03-03T02:22:38.007Z,53.97
2023-03-03T02:25:08.291Z,53.46
2023-03-03T02:27:36.502Z,53.43
2023-03-03T02:30:16.677Z,53.65
2023-03-03T02:32:43.891Z,53.91
2023-03-03T02:35:33.623Z,53.56
2023-03-03T02:38:10.883Z,54.03
2023-03-03T02:40:43.056Z,54.38
2023-03-03T02:43:11.952Z,54.56
2023-03-03T02:45:45.750Z,54.01
2023-03-03T02:48:12.580Z,53.85
2023-03-03T02:50:39.500Z,53.64
2023-03-03T02:53:06.206Z,52.96
2023-03-03T02:55:33.082Z,53.22
2023-03-03T02:57:59.951Z,53.35
2023-03-03T03:00:26.750Z,53.48
2023-03-03T03:02:53.584Z,53.78
2023-03-03T03:05:20.370Z,53.68
2023-03-03T03:07:47.217Z,54.28
2023-03-03T03:10:14.166Z,53.94
2023-03-03T03:12:41.622Z,54.61
2023-03-03T03:15:10.920Z,54.83
2023-03-03T03:17:39.052Z,55.37
2023-03-03T03:20:07.247Z,55.31
2023-03-03T03:22:34.808Z,55.05
2023-03-03T03:25:01.940Z,55.17
2023-03-03T03:27:29.537Z,55.35
2023-03-03T03:29:56.312Z,55.00
2023-03-03T03:32:23.585Z,55.11
2023-03-03T03:34:51.094Z,55.40
2023-03-03T03:37:18.219Z,55.63
2023-03-03T03:39:46.391Z,56.12
2023-03-03T03:42:13.806Z,56.96
2023-03-03T03:44:41.323Z,57.35
2023-03-03T03:47:08.352Z,57.47
2023-03-03T03:49:35.927Z,57.95
2023-03-03T03:52:03.556Z,58.51
2023-03-03T03:54:32.691Z,58.37
2023-03-03T03:56:59.626Z,58.63
2023-03-03T03:59:27.477Z,58.61
2023-03-03T04:01:54.621Z,58.72
2023-03-03T04:04:23.208Z,58.53
2023-03-03T04:06:50.954Z,58.08
2023-03-03T04:09:17.868Z,57.60
2023-03-03T04:11:45.634Z,57.62
2023-03-03T04:14:13.471Z,57.94
2023-03-03T04:16:40.221Z,57.80
2023-03-03T04:19:07.104Z,57.95
2023-03-03T04:21:36.679Z,57.52
2023-03-03T04:24:03.640Z,57.64
2023-03-03T04:26:31.674Z,57.63
2023-03-03T04:29:01.148Z,57.95
2023-03-03T04:31:28.906Z,57.56
2023-03-03T04:33:56.138Z,57.09
2023-03-03T04:36:23.652Z,57.47
2023-03-03T04:38:50.494Z,57.40
2023-03-03T04:41:18.234Z,57.41
2023-03-03T04:43:45.712Z,56.83
2023-03-03T04:46:13.841Z,57.13
2023-03-03T04:48:40.648Z,57.20
2023-03-03T04:51:07.573Z,57.00
2023-03-03T04:53:38.377Z,56.99
2023-03-03T04:56:07.521Z,57.48
2023-03-03T04:58:34.951Z,57.42
2023-03-03T05:01:01.990Z,57.50
2023-03-03T05:03:31.204Z,57.45
2023-03-03T05:05:59.302Z,57.17
2023-03-03T05:08:26.101Z,56.96
2023-03-03T05:10:54.234Z,57.08
2023-03-03T05:13:21.299Z,56.87
2023-03-03T05:15:52.741Z,56.77
2023-03-03T05:18:20.427Z,56.59
2023-03-03T05:20:47.302Z,56.49
2023-03-03T05:23:14.083Z,56.75
2023-03-03T05:25:42.370Z,56.02
2023-03-03T05:28:10.874Z,56.19
2023-03-03T05:30:37.703Z,56.59
2023-03-03T05:33:05.492Z,56.44
2023-03-03T05:35:33.108Z,55.85
2023-03-03T05:38:00.031Z,56.04
2023-03-03T05:40:27.771Z,56.28
2023-03-03T05:42:54.592Z,56.28
2023-03-03T05:45:21.476Z,56.39
2023-03-03T05:47:48.544Z,56.84
2023-03-03T05:50:15.498Z,56.57
2023-03-03T05:52:42.631Z,57.60
2023-03-03T05:55:10.104Z,58.13
2023-03-03T05:57:36.873Z,57.72
2023-03-03T06:00:06.118Z,58.26
2023-03-03T06:02:39.941Z,58.26
2023-03-03T06:05:07.090Z,58.45
2023-03-03T06:07:33.895Z,57.90
2023-03-03T06:10:00.686Z,58.14
2023-03-03T06:12:31.208Z,58.47
2023-03-03T06:14:57.943Z,58.42
2023-03-03T06:17:24.681Z,58.61
2023-03-03T06:19:51.486Z,58.56
2023-03-03T06:22:18.328Z,58.47
2023-03-03T06:24:45.084Z,58.76
2023-03-03T06:27:11.847Z,58.46
2023-03-03T06:29:38.709Z,58.33
2023-03-03T06:32:05.714Z,58.55
2023-03-03T06:34:32.582Z,58.35
2023-03-03T06:36:59.812Z,58.57
2023-03-03T06:39:26.602Z,58.75
2023-03-03T06:41:53.328Z,58.42
2023-03-03T06:44:20.225Z,58.85
2023-03-03T06:46:47.056Z,58.38
2023-03-03T06:49:13.889Z,58.21
2023-03-03T06:51:41.199Z,57.84
2023-03-03T06:54:16.872Z,57.60
2023-03-03T06:56:45.129Z,57.20
2023-03-03T06:59:21.034Z,57.10
2023-03-03T07:01:49.872Z,57.00
2023-03-03T07:04:31.771Z,56.61
2023-03-03T07:07:14.935Z,56.32
2023-03-03T07:09:45.195Z,56.19
2023-03-03T07:12:16.909Z,55.77
2023-03-03T07:14:46.419Z,56.10
2023-03-03T07:17:19.227Z,56.12
2023-03-03T07:19:46.905Z,56.03
2023-03-03T07:22:28.671Z,55.97
2023-03-03T07:25:01.893Z,55.61
2023-03-03T07:27:30.605Z,55.82
2023-03-03T07:30:24.325Z,55.66
2023-03-03T07:32:56.485Z,55.40
2023-03-03T07:35:49.724Z,55.50
2023-03-03T07:38:32.124Z,55.46
2023-03-03T07:41:01.598Z,55.08
2023-03-03T07:43:50.730Z,54.49
2023-03-03T07:46:28.689Z,54.40
2023-03-03T07:48:57.647Z,54.33
2023-03-03T07:51:28.067Z,53.57
2023-03-03T07:54:28.497Z,53.93
2023-03-03T07:57:32.792Z,53.76
2023-03-03T08:00:14.389Z,54.01
2023-03-03T08:02:47.402Z,53.86
2023-03-03T08:05:34.028Z,53.96
2023-03-03T08:08:09.812Z,53.60
2023-03-03T08:10:48.790Z,53.31
2023-03-03T08:13:29.754Z,52.74
2023-03-03T08:16:16.845Z,53.16
2023-03-03T08:18:53.307Z,52.80
2023-03-03T08:21:23.096Z,52.75
2023-03-03T08:23:51.795Z,52.69
2023-03-03T08:26:20.276Z,52.34
2023-03-03T08:28:47.670Z,52.21
2023-03-03T08:31:22.541Z,51.99
2023-03-03T08:33:54.870Z,51.83
2023-03-03T08:36:21.866Z,51.84
2023-03-03T08:38:48.611Z,51.19
2023-03-03T08:41:15.447Z,50.83
2023-03-03T08:43:43.282Z,50.96
2023-03-03T08:46:11.803Z,50.60
2023-03-03T08:48:41.638Z,50.70
2023-03-03T08:51:08.402Z,50.61
2023-03-03T08:53:36.704Z,50.52
2023-03-03T08:56:04.535Z,50.18
2023-03-03T08:58:35.549Z,49.75
2023-03-03T09:01:04.268Z,49.50
2023-03-03T09:03:31.244Z,49.49
2023-03-03T09:05:58.148Z,49.43
2023-03-03T09:08:24.912Z,48.83
2023-03-03T09:10:51.660Z,49.10
2023-03-03T09:13:20.417Z,49.17
2023-03-03T09:15:49.089Z,48.77
2023-03-03T09:18:22.512Z,48.42
2023-03-03T09:20:51.643Z,48.67
2023-03-03T09:23:41.901Z,48.44
2023-03-03T09:26:11.737Z,48.21
2023-03-03T09:28:38.529Z,47.78
2023-03-03T09:31:22.239Z,47.70
2023-03-03T09:33:55.103Z,47.17
2023-03-03T09:36:36.765Z,46.81
2023-03-03T09:39:33.630Z,47.07
2023-03-03T09:42:21.598Z,46.37
2023-03-03T09:45:07.132Z,46.06
2023-03-03T09:48:04.955Z,45.33
2023-03-03T09:50:52.853Z,44.49
2023-03-03T09:53:25.779Z,44.27
2023-03-03T09:56:10.421Z,44.28
2023-03-03T09:58:46.342Z,43.97
2023-03-03T10:01:21.911Z,43.37
2023-03-03T10:04:00.625Z,43.02
2023-03-03T10:06:53.265Z,43.16
2023-03-03T10:09:50.726Z,43.06
2023-03-03T10:12:24.047Z,42.79
2023-03-03T10:15:20.188Z,42.74
2023-03-03T10:18:12.186Z,42.13
2023-03-03T10:20:55.904Z,42.10
2023-03-03T10:24:00.908Z,41.25
2023-03-03T10:26:45.770Z,40.95
2023-03-03T10:29:37.573Z,40.61
2023-03-03T10:32:36.745Z,40.23
2023-03-03T10:35:31.122Z,40.31
2023-03-03T10:38:19.628Z,39.35
2023-03-03T10:40:46.379Z,39.82
2023-03-03T10:43:31.049Z,39.71
2023-03-03T10:46:10.630Z,38.86
2023-03-03T10:49:05.307Z,38.30
2023-03-03T10:51:52.293Z,38.11
2023-03-03T10:54:37.479Z,37.92
2023-03-03T10:57:35.049Z,37.57
2023-03-03T11:00:16.814Z,37.90
2023-03-03T11:03:01.942Z,37.86
2023-03-03T11:06:09.921Z,39.10
2023-03-03T11:09:02.986Z,38.60
2023-03-03T11:11:32.620Z,38.85
2023-03-03T11:14:21.958Z,50.16
2023-03-03T11:17:01.488Z,40.50
2023-03-03T11:19:57.632Z,41.73
2023-03-03T11:22:33.618Z,41.66
2023-03-03T11:25:23.313Z,40.86
2023-03-03T11:28:05.815Z,40.75
2023-03-03T11:30:43.723Z,40.14
2023-03-03T11:33:18.254Z,41.29
2023-03-03T11:35:51.224Z,40.04
2023-03-03T11:38:36.257Z,41.05
2023-03-03T11:41:13.591Z,40.76
2023-03-03T11:44:06.367Z,39.82
2023-03-03T11:46:40.607Z,40.11
2023-03-03T11:49:16.625Z,40.15
2023-03-03T11:51:43.428Z,40.24
2023-03-03T11:54:15.922Z,40.41
2023-03-03T11:56:47.389Z,40.61
2023-03-03T11:59:35.575Z,40.25
2023-03-03T12:02:37.199Z,40.49
2023-03-03T12:05:27.433Z,40.31
2023-03-03T12:08:07.760Z,40.29
2023-03-03T12:10:37.243Z,40.54
2023-03-03T12:13:11.623Z,40.07
2023-03-03T12:16:11.933Z,40.46
2023-03-03T12:19:11.396Z,40.31
2023-03-03T12:21:58.038Z,40.30
2023-03-03T12:24:34.352Z,39.96
2023-03-03T12:27:07.671Z,40.59
2023-03-03T12:29:40.259Z,40.79
2023-03-03T12:32:35.303Z,40.88
2023-03-03T12:35:16.338Z,40.83
2023-03-03T12:38:33.905Z,41.18
2023-03-03T12:41:09.487Z,41.11
2023-03-03T12:44:04.270Z,40.57
2023-03-03T12:46:39.814Z,40.47
2023-03-03T12:49:06.658Z,40.22
2023-03-03T12:51:58.893Z,40.36
2023-03-03T12:54:53.682Z,40.00
2023-03-03T12:57:20.461Z,40.14
2023-03-03T13:00:16.518Z,40.32
2023-03-03T13:02:58.492Z,40.37
2023-03-03T13:05:39.310Z,41.21
2023-03-03T13:08:31.901Z,41.17
2023-03-03T13:11:16.451Z,41.12
2023-03-03T13:13:50.909Z,41.15
2023-03-03T13:16:38.881Z,40.85
2023-03-03T13:19:32.709Z,41.07
2023-03-03T13:22:08.565Z,41.40
2023-03-03T13:24:50.381Z,41.39
2023-03-03T13:27:20.843Z,41.12
2023-03-03T13:30:03.969Z,40.67
2023-03-03T13:32:43.265Z,39.12
2023-03-03T13:35:19.321Z,39.48
2023-03-03T13:37:49.673Z,39.76
2023-03-03T13:40:19.585Z,40.13
2023-03-03T13:43:12.600Z,40.80
2023-03-03T13:45:54.153Z,40.86
2023-03-03T13:48:51.393Z,41.10
2023-03-03T13:51:55.696Z,41.56
2023-03-03T13:54:41.081Z,41.81
2023-03-03T13:57:25.921Z,41.56
2023-03-03T14:00:30.222Z,41.90
2023-03-03T14:03:30.336Z,41.97
2023-03-03T14:06:05.348Z,42.71
2023-03-03T14:08:52.075Z,42.44
2023-03-03T14:11:35.979Z,42.75
2023-03-03T14:14:17.912Z,42.88
2023-03-03T14:16:52.711Z,43.29
2023-03-03T14:19:51.888Z,43.43
2023-03-03T14:22:26.222Z,44.08
2023-03-03T14:24:59.473Z,43.85
2023-03-03T14:27:34.271Z,44.22
2023-03-03T14:30:29.920Z,43.44
2023-03-03T14:33:05.939Z,43.76
2023-03-03T14:35:39.254Z,43.14
2023-03-03T14:38:18.287Z,42.57
2023-03-03T14:40:47.322Z,43.06
2023-03-03T14:43:36.975Z,43.13
2023-03-03T14:46:15.725Z,43.70
2023-03-03T14:48:55.185Z,43.60
2023-03-03T14:51:30.213Z,43.95
2023-03-03T14:53:57.609Z,44.22
2023-03-03T14:56:25.022Z,44.88
2023-03-03T14:58:54.375Z,44.18
2023-03-03T15:01:22.643Z,44.49
2023-03-03T15:03:59.184Z,44.85
2023-03-03T15:06:47.824Z,45.19
2023-03-03T15:09:26.940Z,45.58
2023-03-03T15:11:56.785Z,45.28
2023-03-03T15:14:37.987Z,45.50
2023-03-03T15:17:22.815Z,45.60
2023-03-03T15:20:26.974Z,46.11
2023-03-03T15:23:22.967Z,46.13
2023-03-03T15:26:06.692Z,46.32
2023-03-03T15:29:08.034Z,46.24
2023-03-03T15:31:49.948Z,46.34
2023-03-03T15:34:37.224Z,46.75
2023-03-03T15:37:07.050Z,46.77
2023-03-03T15:40:03.881Z,46.82
2023-03-03T15:42:42.876Z,47.06
2023-03-03T15:45:33.857Z,46.76
2023-03-03T15:48:35.982Z,47.11
2023-03-03T15:51:30.614Z,47.59
2023-03-03T15:54:06.401Z,47.57
2023-03-03T15:56:50.745Z,48.03
2023-03-03T15:59:26.528Z,47.79
2023-03-03T16:02:06.910Z,48.08
2023-03-03T16:04:39.084Z,48.90
2023-03-03T16:07:17.490Z,49.71
2023-03-03T16:10:24.977Z,49.77
2023-03-03T16:13:16.290Z,49.72
2023-03-03T16:15:53.570Z,49.95
2023-03-03T16:18:39.802Z,49.85
2023-03-03T16:21:18.556Z,49.97
2023-03-03T16:23:49.950Z,50.04
2023-03-03T16:26:40.866Z,49.37
2023-03-03T16:29:36.101Z,49.34
2023-03-03T16:32:13.898Z,48.89
2023-03-03T16:35:00.024Z,49.20
2023-03-03T16:37:48.157Z,49.83
2023-03-03T16:40:22.229Z,49.41
2023-03-03T16:43:14.674Z,49.97
2023-03-03T16:45:41.877Z,50.37
2023-03-03T16:48:37.507Z,50.99
2023-03-03T16:51:26.136Z,50.98
2023-03-03T16:54:07.008Z,51.21
2023-03-03T16:56:37.005Z,50.72
2023-03-03T16:59:14.018Z,50.75
2023-03-03T17:02:09.677Z,50.46
2023-03-03T17:04:39.160Z,50.31
2023-03-03T17:07:46.288Z,50.03
2023-03-03T17:10:25.043Z,49.98
2023-03-03T17:13:18.466Z,50.43
2023-03-03T17:15:54.062Z,49.87
2023-03-03T17:18:44.835Z,49.32
2023-03-03T17:21:56.179Z,48.84
2023-03-03T17:24:41.530Z,47.99
2023-03-03T17:27:23.724Z,48.15
2023-03-03T17:30:02.470Z,47.80
2023-03-03T17:32:49.723Z,48.46
2023-03-03T17:35:31.918Z,49.10
2023-03-03T17:37:58.614Z,48.26
2023-03-03T17:40:48.634Z,48.40
2023-03-03T17:43:21.757Z,48.89
2023-03-03T17:45:52.779Z,49.82
2023-03-03T17:48:50.377Z,50.06
2023-03-03T17:51:38.965Z,50.43
2023-03-03T17:54:23.428Z,51.03
2023-03-03T17:57:28.113Z,51.07
2023-03-03T18:00:10.710Z,51.44
2023-03-03T18:02:56.384Z,51.97
2023-03-03T18:05:39.132Z,52.51
2023-03-03T18:08:28.986Z,52.39
2023-03-03T18:11:14.195Z,52.62
2023-03-03T18:13:49.874Z,52.70
2023-03-03T18:16:25.964Z,52.78
2023-03-03T18:18:59.909Z,52.93
2023-03-03T18:21:26.691Z,53.03
2023-03-03T18:24:25.427Z,53.00
2023-03-03T18:26:56.191Z,53.38
2023-03-03T18:29:28.121Z,53.42
2023-03-03T18:31:58.920Z,53.48
2023-03-03T18:34:33.714Z,53.23
2023-03-03T18:37:02.477Z,53.57
2023-03-03T18:39:50.266Z,53.68
2023-03-03T18:42:17.036Z,53.69
2023-03-03T18:44:44.864Z,54.09
2023-03-03T18:47:11.971Z,53.90
2023-03-03T18:50:18.609Z,54.27
2023-03-03T18:53:14.235Z,54.56
2023-03-03T18:55:44.020Z,54.75
2023-03-03T18:58:13.737Z,54.88
2023-03-03T19:00:50.561Z,54.99
2023-03-03T19:03:49.343Z,54.95
2023-03-03T19:06:48.279Z,55.30
2023-03-03T19:09:37.962Z,55.45
2023-03-03T19:12:08.462Z,55.89
2023-03-03T19:14:46.799Z,55.89
2023-03-03T19:17:16.642Z,56.02
2023-03-03T19:20:08.909Z,56.40
2023-03-03T19:23:04.940Z,56.18
2023-03-03T19:25:32.664Z,56.28
2023-03-03T19:28:01.993Z,56.44
2023-03-03T19:30:41.218Z,56.38
2023-03-03T19:33:12.239Z,56.48
2023-03-03T19:35:59.398Z,56.76
2023-03-03T19:39:13.934Z,56.70
2023-03-03T19:42:18.152Z,56.73
2023-03-03T19:44:55.879Z,56.96
2023-03-03T19:47:26.667Z,56.87
2023-03-03T19:50:05.228Z,57.13
2023-03-03T19:52:38.082Z,56.78
2023-03-03T19:55:23.388Z,56.89
2023-03-03T19:58:17.703Z,56.87
2023-03-03T20:00:49.914Z,57.13
2023-03-03T20:03:35.367Z,57.09
2023-03-03T20:06:17.317Z,57.34
2023-03-03T20:08:51.295Z,57.30
2023-03-03T20:11:48.064Z,57.31
2023-03-03T20:14:46.046Z,57.79
2023-03-03T20:17:35.269Z,57.59
2023-03-03T20:20:26.060Z,57.80
2023-03-03T20:23:00.637Z,57.71
2023-03-03T20:25:30.458Z,58.11
2023-03-03T20:28:25.852Z,57.91
2023-03-03T20:31:20.840Z,57.31
2023-03-03T20:33:56.059Z,58.08
2023-03-03T20:36:52.282Z,58.82
2023-03-03T20:39:43.302Z,58.48
2023-03-03T20:42:42.154Z,58.77
2023-03-03T20:45:27.588Z,58.57
2023-03-03T20:48:17.841Z,57.69
2023-03-03T20:50:59.105Z,57.88
2023-03-03T20:53:51.238Z,57.53
2023-03-03T20:56:30.108Z,57.93
2023-03-03T20:59:15.076Z,58.18
2023-03-03T21:02:12.726Z,57.82
2023-03-03T21:04:39.763Z,58.35
2023-03-03T21:07:06.737Z,57.92
2023-03-03T21:09:38.894Z,58.49
2023-03-03T21:12:25.746Z,58.66
2023-03-03T21:15:07.283Z,59.11
2023-03-03T21:17:34.405Z,60.23
2023-03-03T21:20:31.848Z,60.39
2023-03-03T21:23:00.757Z,60.63
2023-03-03T21:25:47.993Z,60.80
2023-03-03T21:28:28.013Z,61.41
2023-03-03T21:31:10.134Z,60.83
2023-03-03T21:33:53.814Z,60.48
2023-03-03T21:36:24.777Z,60.75
2023-03-03T21:38:53.650Z,60.90
2023-03-03T21:41:20.932Z,61.15
2023-03-03T21:43:50.803Z,60.86
2023-03-03T21:46:23.111Z,60.77
2023-03-03T21:48:50.972Z,60.56
2023-03-03T21:51:17.806Z,60.64
2023-03-03T21:53:45.789Z,60.96
2023-03-03T21:56:15.948Z,61.52
2023-03-03T21:58:43.306Z,61.42
2023-03-03T22:01:10.479Z,61.62
2023-03-03T22:03:37.668Z,61.51
2023-03-03T22:06:04.733Z,61.33
2023-03-03T22:08:31.494Z,60.84
2023-03-03T22:10:58.326Z,60.96
2023-03-03T22:13:27.342Z,60.77
2023-03-03T22:15:55.202Z,61.20
2023-03-03T22:18:22.100Z,61.69
2023-03-03T22:20:53.298Z,61.89
2023-03-03T22:23:20.150Z,61.81
2023-03-03T22:25:47.896Z,61.60
2023-03-03T22:28:14.820Z,61.90
2023-03-03T22:30:41.514Z,61.94
2023-03-03T22:33:08.318Z,61.67
2023-03-03T22:35:35.206Z,61.82
2023-03-03T22:38:02.084Z,61.83
2023-03-03T22:40:29.128Z,61.36
2023-03-03T22:42:55.924Z,61.34
2023-03-03T22:45:22.627Z,60.79
2023-03-03T22:47:49.342Z,61.13
2023-03-03T22:50:17.082Z,60.79
2023-03-03T22:52:43.932Z,61.17
2023-03-03T22:55:11.519Z,60.73
2023-03-03T22:57:38.315Z,60.62
2023-03-03T23:00:09.060Z,60.64
2023-03-03T23:02:35.894Z,60.64
2023-03-03T23:05:08.293Z,60.86
2023-03-03T23:07:35.873Z,60.72
2023-03-03T23:10:04.736Z,60.65
2023-03-03T23:12:31.565Z,60.36
2023-03-03T23:14:58.394Z,60.48
2023-03-03T23:17:25.397Z,60.00
2023-03-03T23:19:52.345Z,60.18
2023-03-03T23:22:19.321Z,60.18
2023-03-03T23:24:46.089Z,60.13
2023-03-03T23:27:12.848Z,60.03
2023-03-03T23:29:39.635Z,60.16
2023-03-03T23:32:06.453Z,60.07
2023-03-03T23:34:33.510Z,60.42
2023-03-03T23:37:00.394Z,60.13
2023-03-03T23:39:27.171Z,60.25
2023-03-03T23:41:53.933Z,59.92
2023-03-03T23:44:20.731Z,59.98
2023-03-03T23:46:47.497Z,60.10
2023-03-03T23:49:14.431Z,60.20
2023-03-03T23:51:41.274Z,60.20
2023-03-03T23:54:07.992Z,60.42
2023-03-03T23:56:34.911Z,60.50
2023-03-03T23:59:01.669Z,60.79
